Time;durP1;ratioP1;P1;durP2;ratioP2;P2;SDS_P1;SDS_P2;PMS_P1;PMS_P2;Temp;Humidity;BMP_temperature;BMP_pressure;BME280_temperature;BME280_humidity;BME280_pressure;Samples;Min_cycle;Max_cycle;Signal;HPM_P1;HPM_P2
2021/06/12 00:02:06;;;;;;;12.00;10.80;;;23.80;57.20;;;;;;5014430;28;20630;-53
2021/06/12 00:04:32;;;;;;;11.80;10.73;;;23.90;57.00;;;;;;5012875;28;20201;-50
2021/06/12 00:06:58;;;;;;;12.50;11.40;;;23.80;57.20;;;;;;5014676;28;20304;-54
2021/06/12 00:09:28;;;;;;;11.47;10.60;;;23.70;57.40;;;;;;5014261;28;20444;-51
2021/06/12 00:11:54;;;;;;;12.63;11.43;;;23.80;57.30;;;;;;5019605;28;21133;-52
2021/06/12 00:14:20;;;;;;;12.37;11.33;;;23.70;57.20;;;;;;5033796;28;20515;-53
2021/06/12 00:16:45;;;;;;;13.80;12.30;;;23.80;57.10;;;;;;5034205;28;20514;-53
2021/06/12 00:19:12;;;;;;;12.67;11.50;;;23.70;57.30;;;;;;5033910;28;20641;-53
2021/06/12 00:21:38;;;;;;;11.67;10.63;;;23.50;57.70;;;;;;5027700;28;20190;-52
2021/06/12 00:24:05;;;;;;;12.40;11.40;;;23.60;57.60;;;;;;5013721;28;20478;-53
2021/06/12 00:26:31;;;;;;;12.60;11.60;;;23.60;57.60;;;;;;5014100;28;20238;-51
2021/06/12 00:28:56;;;;;;;13.33;12.33;;;23.50;57.80;;;;;;5013927;28;20429;-51
2021/06/12 00:31:22;;;;;;;12.97;11.73;;;23.40;58.30;;;;;;5012840;28;20791;-52
2021/06/12 00:33:48;;;;;;;13.13;12.03;;;23.10;58.80;;;;;;5013391;28;20190;-52
2021/06/12 00:36:13;;;;;;;12.93;11.73;;;23.10;58.70;;;;;;5017308;28;20177;-53
2021/06/12 00:38:39;;;;;;;12.20;11.10;;;23.00;59.00;;;;;;5033414;28;20189;-51
2021/06/12 00:41:08;;;;;;;12.97;11.87;;;23.00;59.10;;;;;;5033884;28;20193;-53
2021/06/12 00:43:34;;;;;;;12.87;11.70;;;22.80;59.60;;;;;;5019822;28;20569;-50
2021/06/12 00:46:03;;;;;;;12.90;11.80;;;22.80;59.70;;;;;;5013701;28;20595;-50
2021/06/12 00:48:29;;;;;;;13.07;11.90;;;22.80;59.40;;;;;;5014083;28;20425;-50
2021/06/12 00:50:55;;;;;;;13.53;11.97;;;22.80;59.30;;;;;;5013513;28;20429;-50
2021/06/12 00:53:36;;;;;;;12.07;10.97;;;22.90;59.10;;;;;;5013935;28;20233;-52
2021/06/12 00:56:04;;;;;;;12.60;11.30;;;23.10;58.80;;;;;;5013967;28;20448;-50
2021/06/12 00:58:30;;;;;;;13.40;12.10;;;23.20;58.60;;;;;;5012533;28;20429;-51
2021/06/12 01:00:56;;;;;;;12.33;11.23;;;23.20;58.30;;;;;;5013153;28;20441;-52
2021/06/12 01:03:24;;;;;;;13.77;11.23;;;23.30;58.00;;;;;;5013323;28;20433;-54
2021/06/12 01:05:49;;;;;;;12.43;11.43;;;23.30;58.20;;;;;;5013024;28;20253;-54
2021/06/12 01:08:15;;;;;;;13.03;11.87;;;23.30;58.20;;;;;;5013451;28;20469;-54
2021/06/12 01:10:41;;;;;;;11.67;10.67;;;23.30;58.20;;;;;;5013321;28;20192;-53
2021/06/12 01:13:23;;;;;;;12.80;11.80;;;23.10;58.30;;;;;;5029803;28;20240;-54
2021/06/12 01:15:57;;;;;;;13.20;12.10;;;23.00;59.00;;;;;;5032614;28;20205;-54
2021/06/12 01:18:31;;;;;;;12.63;11.53;;;22.90;59.10;;;;;;5033284;28;20430;-54
2021/06/12 01:21:15;;;;;;;12.77;11.67;;;22.80;59.60;;;;;;5018269;28;20429;-54
2021/06/12 01:24:18;;;;;;;12.93;11.73;;;22.50;60.10;;;;;;5010813;28;20483;-53
2021/06/12 01:26:52;;;;;;;14.60;11.90;;;22.50;60.30;;;;;;5024260;28;20554;-54
2021/06/12 01:29:38;;;;;;;13.03;11.93;;;22.70;59.70;;;;;;5012655;28;20432;-52
2021/06/12 01:32:05;;;;;;;14.20;12.10;;;22.90;59.10;;;;;;5012148;28;20444;-53
2021/06/12 01:34:33;;;;;;;13.30;12.00;;;22.80;59.10;;;;;;5011982;28;20432;-54
2021/06/12 01:37:01;;;;;;;13.50;10.63;;;22.80;59.40;;;;;;5022435;28;20439;-54
2021/06/12 01:39:28;;;;;;;12.33;11.00;;;22.70;59.70;;;;;;5031080;28;20432;-51
2021/06/12 01:41:58;;;;;;;11.53;10.53;;;22.70;59.50;;;;;;5031988;28;20917;-53
2021/06/12 01:44:27;;;;;;;13.03;11.93;;;22.70;59.50;;;;;;5012279;28;21265;-53
2021/06/12 01:46:54;;;;;;;14.67;13.40;;;22.50;59.60;;;;;;5012587;28;20485;-52
2021/06/12 01:49:21;;;;;;;12.60;11.40;;;22.60;60.00;;;;;;5012326;28;21027;-54
2021/06/12 01:51:47;;;;;;;12.13;11.03;;;22.70;59.50;;;;;;5010641;28;20454;-52
2021/06/12 01:54:16;;;;;;;13.37;12.10;;;22.60;59.50;;;;;;5012535;28;20943;-52
2021/06/12 01:56:43;;;;;;;12.83;11.70;;;22.30;60.20;;;;;;5012891;28;20421;-51
2021/06/12 01:59:09;;;;;;;12.97;11.90;;;22.30;60.30;;;;;;5011890;28;20787;-53
2021/06/12 02:01:37;;;;;;;13.17;11.93;;;22.30;60.10;;;;;;5012787;28;20951;-53
2021/06/12 02:04:03;;;;;;;13.20;12.17;;;22.50;59.90;;;;;;5011791;28;20456;-54
2021/06/12 02:06:30;;;;;;;15.07;11.90;;;22.70;59.40;;;;;;5012472;28;20479;-52
2021/06/12 02:08:56;;;;;;;12.43;11.43;;;22.90;59.00;;;;;;5011762;28;20460;-53
2021/06/12 02:11:24;;;;;;;11.17;10.17;;;22.70;58.80;;;;;;5014962;28;20456;-51
2021/06/12 02:13:50;;;;;;;11.73;10.73;;;22.80;58.70;;;;;;5031413;28;20508;-54
2021/06/12 02:16:20;;;;;;;13.07;12.07;;;22.90;58.50;;;;;;5031066;28;20938;-52
2021/06/12 02:18:46;;;;;;;12.50;11.23;;;23.00;58.10;;;;;;5031188;28;20965;-51
2021/06/12 02:21:14;;;;;;;12.40;11.20;;;23.10;57.90;;;;;;5015255;28;20516;-54
2021/06/12 02:23:40;;;;;;;12.50;11.40;;;22.90;58.20;;;;;;5011293;28;20420;-53
2021/06/12 02:26:07;;;;;;;12.60;11.60;;;22.90;58.40;;;;;;5012201;28;20488;-53
2021/06/12 02:28:35;;;;;;;13.03;11.80;;;22.80;58.50;;;;;;5012326;28;20849;-51
2021/06/12 02:31:08;;;;;;;12.10;11.20;;;22.80;58.60;;;;;;5011899;28;20425;-52
2021/06/12 02:33:36;;;;;;;13.33;12.23;;;22.70;58.90;;;;;;5011763;28;20516;-54
2021/06/12 02:36:03;;;;;;;13.30;12.00;;;22.60;59.20;;;;;;5013874;28;20426;-50
2021/06/12 02:38:29;;;;;;;13.20;12.20;;;22.60;59.10;;;;;;5032335;28;20442;-53
2021/06/12 02:40:56;;;;;;;11.93;10.93;;;22.40;59.30;;;;;;5031068;28;20763;-51
2021/06/12 02:43:22;;;;;;;12.77;11.57;;;22.40;59.50;;;;;;5017185;28;20424;-51
2021/06/12 02:45:48;;;;;;;13.23;12.10;;;22.40;59.40;;;;;;5010707;28;20484;-54
2021/06/12 02:48:16;;;;;;;13.50;12.30;;;22.50;59.20;;;;;;5011953;28;20202;-54
2021/06/12 02:50:45;;;;;;;12.53;11.53;;;22.50;59.10;;;;;;5011214;28;20425;-53
2021/06/12 02:53:12;;;;;;;11.93;10.93;;;22.50;59.20;;;;;;5011552;28;20467;-52
2021/06/12 02:55:40;;;;;;;12.50;11.53;;;22.50;59.10;;;;;;5018000;28;20427;-52
2021/06/12 02:58:08;;;;;;;13.27;12.10;;;22.40;59.10;;;;;;5031573;28;20439;-54
2021/06/12 03:00:36;;;;;;;13.13;11.93;;;22.40;59.10;;;;;;5031101;28;20926;-52
2021/06/12 03:03:03;;;;;;;12.93;11.77;;;22.30;59.40;;;;;;5031339;28;20509;-54
2021/06/12 03:05:38;;;;;;;12.07;10.90;;;22.30;59.50;;;;;;5031105;28;21029;-50
2021/06/12 03:08:04;;;;;;;12.17;11.00;;;22.30;59.50;;;;;;5031410;28;20424;-53
2021/06/12 03:10:33;;;;;;;12.93;11.67;;;22.40;59.30;;;;;;5029203;28;20451;-54
2021/06/12 03:13:02;;;;;;;12.83;11.73;;;22.50;59.10;;;;;;5028662;28;20810;-50
2021/06/12 03:15:30;;;;;;;13.27;11.97;;;22.60;58.90;;;;;;5011131;28;20444;-50
2021/06/12 03:17:56;;;;;;;13.30;12.30;;;22.60;58.60;;;;;;5011813;28;20904;-54
2021/06/12 03:20:23;;;;;;;13.30;12.10;;;22.70;58.60;;;;;;5019746;28;20445;-53
2021/06/12 03:22:51;;;;;;;12.23;11.23;;;22.70;58.40;;;;;;5011420;28;20198;-54
2021/06/12 03:25:20;;;;;;;12.20;11.20;;;22.70;58.40;;;;;;5011037;28;20441;-54
2021/06/12 03:27:47;;;;;;;11.73;10.73;;;22.60;58.60;;;;;;5011724;28;20425;-53
2021/06/12 03:30:14;;;;;;;12.60;11.50;;;22.50;58.70;;;;;;5011004;28;20424;-54
2021/06/12 03:32:41;;;;;;;13.97;12.60;;;22.60;58.60;;;;;;5011082;28;21140;-54
2021/06/12 03:35:08;;;;;;;12.33;11.30;;;22.50;58.50;;;;;;5011027;28;20455;-53
2021/06/12 03:37:35;;;;;;;13.57;12.27;;;22.30;59.10;;;;;;5023789;28;20975;-54
2021/06/12 03:40:01;;;;;;;13.83;12.60;;;22.30;59.40;;;;;;5030871;28;20459;-53
2021/06/12 03:42:28;;;;;;;14.03;12.60;;;22.10;59.40;;;;;;5026135;28;20417;-53
2021/06/12 03:44:56;;;;;;;13.83;11.60;;;22.00;59.80;;;;;;5011140;28;20429;-51
2021/06/12 03:47:23;;;;;;;14.03;12.57;;;22.00;60.20;;;;;;5011242;28;20527;-54
2021/06/12 03:49:50;;;;;;;13.50;12.20;;;21.90;60.00;;;;;;5010893;28;20429;-53
2021/06/12 03:52:18;;;;;;;12.40;11.20;;;21.90;60.40;;;;;;5011101;28;20427;-52
2021/06/12 03:54:44;;;;;;;14.27;13.00;;;21.80;60.80;;;;;;5010705;28;20936;-53
2021/06/12 03:57:10;;;;;;;14.03;12.60;;;21.70;61.20;;;;;;5011868;28;20428;-51
2021/06/12 03:59:35;;;;;;;14.13;12.93;;;21.60;61.80;;;;;;5014613;28;20644;-54
2021/06/12 04:02:02;;;;;;;13.20;12.07;;;21.40;62.30;;;;;;5013989;28;20197;-54
2021/06/12 04:04:28;;;;;;;12.70;11.67;;;21.30;63.00;;;;;;5013447;28;20193;-54
2021/06/12 04:06:53;;;;;;;13.90;12.57;;;21.30;63.30;;;;;;5014931;28;20538;-53
2021/06/12 04:09:19;;;;;;;12.67;11.57;;;21.40;62.80;;;;;;5014267;28;20621;-53
2021/06/12 04:11:45;;;;;;;13.10;11.80;;;21.50;62.40;;;;;;5019754;28;20229;-54
2021/06/12 04:14:11;;;;;;;12.73;11.47;;;21.50;62.20;;;;;;5033913;28;20193;-53
2021/06/12 04:16:37;;;;;;;12.37;11.37;;;21.50;62.20;;;;;;5034118;28;20225;-53
2021/06/12 04:19:03;;;;;;;12.60;11.40;;;21.60;62.00;;;;;;5033955;28;20193;-54
2021/06/12 04:21:29;;;;;;;13.33;11.93;;;21.60;62.00;;;;;;5015681;28;20478;-53
2021/06/12 04:23:55;;;;;;;11.90;11.00;;;21.60;62.10;;;;;;5013955;28;20429;-51
2021/06/12 04:26:20;;;;;;;12.77;11.00;;;21.50;62.40;;;;;;5014321;28;20229;-54
2021/06/12 04:28:46;;;;;;;13.43;12.33;;;21.30;62.80;;;;;;5012312;28;20429;-53
2021/06/12 04:31:12;;;;;;;12.60;11.50;;;21.20;63.60;;;;;;5014559;28;20190;-51
2021/06/12 04:33:37;;;;;;;13.57;12.40;;;21.20;63.80;;;;;;5013542;28;20190;-53
2021/06/12 04:36:04;;;;;;;13.47;12.37;;;21.30;63.30;;;;;;5016384;28;20193;-50
2021/06/12 04:38:29;;;;;;;13.20;11.73;;;21.30;63.30;;;;;;5034353;28;20551;-54
2021/06/12 04:40:55;;;;;;;14.40;13.07;;;21.30;63.50;;;;;;5033273;28;20432;-53
2021/06/12 04:43:21;;;;;;;13.03;11.83;;;21.50;63.20;;;;;;5021971;28;20596;-53
2021/06/12 04:45:46;;;;;;;13.67;12.10;;;21.60;62.70;;;;;;5013318;28;20213;-53
2021/06/12 04:48:12;;;;;;;14.20;12.90;;;21.60;62.80;;;;;;5014074;28;20669;-53
2021/06/12 04:50:39;;;;;;;13.50;12.27;;;21.50;63.20;;;;;;5013206;28;20533;-51
2021/06/12 04:53:07;;;;;;;13.27;11.93;;;21.50;63.20;;;;;;5013581;28;20190;-50
2021/06/12 04:55:32;;;;;;;13.00;12.00;;;21.20;64.10;;;;;;5011994;28;20828;-52
2021/06/12 04:57:58;;;;;;;13.40;12.30;;;21.00;64.90;;;;;;5013940;28;21257;-53
2021/06/12 05:00:24;;;;;;;14.23;12.90;;;21.00;65.10;;;;;;5013013;28;20221;-53
2021/06/12 05:02:50;;;;;;;13.80;12.50;;;20.90;65.80;;;;;;5013428;28;20249;-53
2021/06/12 05:05:16;;;;;;;15.50;11.23;;;21.20;64.90;;;;;;5012941;28;20429;-50
2021/06/12 05:07:42;;;;;;;13.33;12.23;;;21.40;64.20;;;;;;5013545;28;20194;-53
2021/06/12 05:10:09;;;;;;;13.10;11.80;;;21.60;63.40;;;;;;5012201;28;20776;-54
2021/06/12 05:12:36;;;;;;;15.23;13.70;;;21.80;62.90;;;;;;5025585;28;20244;-51
2021/06/12 05:15:01;;;;;;;12.67;11.67;;;21.80;62.50;;;;;;5032993;28;20451;-53
2021/06/12 05:17:31;;;;;;;13.53;12.23;;;21.60;63.10;;;;;;5033280;28;20537;-52
2021/06/12 05:19:57;;;;;;;16.33;13.43;;;21.00;64.90;;;;;;5026092;28;20437;-54
2021/06/12 05:22:25;;;;;;;12.93;11.73;;;21.00;65.80;;;;;;5011664;28;20468;-52
2021/06/12 05:24:51;;;;;;;14.57;13.23;;;21.10;65.30;;;;;;5012760;28;20523;-51
2021/06/12 05:27:17;;;;;;;13.30;11.60;;;21.20;65.40;;;;;;5013149;28;20980;-54
2021/06/12 05:29:43;;;;;;;13.60;12.30;;;21.10;65.50;;;;;;5012824;28;20496;-53
2021/06/12 05:32:08;;;;;;;12.90;11.80;;;21.30;65.20;;;;;;5013001;28;20202;-53
2021/06/12 05:34:34;;;;;;;12.93;11.43;;;21.50;64.70;;;;;;5011360;28;20193;-54
2021/06/12 05:37:00;;;;;;;13.00;11.80;;;21.50;64.10;;;;;;5022747;28;20189;-53
2021/06/12 05:39:26;;;;;;;11.70;10.80;;;21.50;64.40;;;;;;5032316;28;20593;-54
2021/06/12 05:41:52;;;;;;;13.03;11.73;;;21.60;64.00;;;;;;5031985;28;20427;-49
2021/06/12 05:44:17;;;;;;;12.00;11.00;;;21.60;63.50;;;;;;5012279;28;20198;-51
2021/06/12 05:46:43;;;;;;;12.90;11.60;;;21.60;63.70;;;;;;5012729;28;20221;-54
2021/06/12 05:49:09;;;;;;;12.30;11.30;;;21.60;64.00;;;;;;5010824;28;20190;-53
2021/06/12 05:51:34;;;;;;;12.03;11.00;;;21.70;63.80;;;;;;5012665;28;20284;-53
2021/06/12 05:54:00;;;;;;;11.77;10.60;;;21.80;63.50;;;;;;5012417;28;20194;-53
2021/06/12 05:56:25;;;;;;;15.80;11.40;;;22.10;62.80;;;;;;5012845;28;20194;-53
2021/06/12 05:58:51;;;;;;;12.27;11.27;;;22.50;61.70;;;;;;5012242;28;20657;-53
2021/06/12 06:01:17;;;;;;;11.47;10.60;;;22.80;60.60;;;;;;5013058;28;20224;-53
2021/06/12 06:03:42;;;;;;;11.93;10.00;;;22.90;59.90;;;;;;5011801;28;20197;-53
2021/06/12 06:06:08;;;;;;;10.30;9.50;;;23.10;59.80;;;;;;5012787;28;20284;-51
2021/06/12 06:08:34;;;;;;;10.83;9.83;;;23.10;59.70;;;;;;5012629;28;20657;-52
2021/06/12 06:11:01;;;;;;;11.40;10.40;;;23.20;59.60;;;;;;5012560;28;20233;-53
2021/06/12 06:13:26;;;;;;;12.30;10.93;;;23.40;59.30;;;;;;5025215;28;20429;-49
2021/06/12 06:15:52;;;;;;;11.17;10.17;;;23.50;58.50;;;;;;5010445;28;20804;-52
2021/06/12 06:18:18;;;;;;;11.47;10.60;;;23.60;58.50;;;;;;5013359;28;20190;-54
2021/06/12 06:20:44;;;;;;;10.23;9.40;;;23.60;58.40;;;;;;5018863;28;20194;-55
2021/06/12 06:23:10;;;;;;;15.80;10.50;;;23.50;58.60;;;;;;5011743;28;20194;-54
2021/06/12 06:25:35;;;;;;;9.53;8.83;;;23.70;58.40;;;;;;5011651;28;20464;-53
2021/06/12 06:28:01;;;;;;;10.60;9.77;;;24.10;58.30;;;;;;5012213;28;20210;-54
2021/06/12 06:30:27;;;;;;;10.53;9.73;;;24.50;57.50;;;;;;5011668;28;20205;-54
2021/06/12 06:32:52;;;;;;;11.30;10.30;;;24.60;56.90;;;;;;5011715;28;20201;-54
2021/06/12 06:35:18;;;;;;;10.00;9.20;;;24.90;56.30;;;;;;5011577;28;20198;-54
2021/06/12 06:37:44;;;;;;;10.57;9.67;;;25.10;55.70;;;;;;5027418;28;20304;-53
2021/06/12 06:40:11;;;;;;;10.83;9.50;;;25.40;55.30;;;;;;5031474;28;20204;-53
2021/06/12 06:42:37;;;;;;;10.07;9.03;;;25.60;54.90;;;;;;5022191;28;20436;-54
2021/06/12 06:45:03;;;;;;;9.93;9.10;;;25.80;54.30;;;;;;5011585;28;20848;-54
2021/06/12 06:47:30;;;;;;;10.33;9.40;;;26.00;53.50;;;;;;5012000;28;20623;-54
2021/06/12 06:49:55;;;;;;;9.70;8.87;;;26.10;53.60;;;;;;5011554;28;20439;-54
2021/06/12 06:52:21;;;;;;;11.27;10.17;;;26.30;53.50;;;;;;5011237;28;20977;-54
2021/06/12 06:54:47;;;;;;;10.03;9.13;;;26.50;51.70;;;;;;5011313;28;20193;-54
2021/06/12 06:57:12;;;;;;;9.63;8.73;;;26.60;52.00;;;;;;5012044;28;20194;-54
2021/06/12 06:59:38;;;;;;;10.30;9.30;;;26.50;51.20;;;;;;5011265;28;20190;-51
2021/06/12 07:02:03;;;;;;;10.30;9.40;;;26.70;51.50;;;;;;5011343;28;20270;-53
2021/06/12 07:04:31;;;;;;;9.70;9.00;;;26.70;51.20;;;;;;5011507;28;20272;-52
2021/06/12 07:06:57;;;;;;;11.00;10.10;;;26.60;51.30;;;;;;5011930;28;20229;-53
2021/06/12 07:09:24;;;;;;;10.90;9.90;;;26.60;51.40;;;;;;5026660;28;20470;-53
2021/06/12 07:11:50;;;;;;;9.00;8.20;;;26.50;51.80;;;;;;5030844;28;20688;-53
2021/06/12 07:14:15;;;;;;;9.00;8.37;;;26.60;51.70;;;;;;5031249;28;20490;-54
2021/06/12 07:16:41;;;;;;;12.13;8.97;;;26.80;51.90;;;;;;5031360;28;20216;-53
2021/06/12 07:19:06;;;;;;;9.27;8.57;;;26.80;51.50;;;;;;5030648;28;20197;-50
2021/06/12 07:21:33;;;;;;;10.50;9.70;;;26.70;51.80;;;;;;5011588;28;20190;-53
2021/06/12 07:23:58;;;;;;;9.43;8.73;;;26.60;52.20;;;;;;5011169;28;20197;-53
2021/06/12 07:26:24;;;;;;;9.53;8.80;;;27.00;51.50;;;;;;5011488;28;20976;-54
2021/06/12 07:28:51;;;;;;;9.60;8.70;;;27.20;51.10;;;;;;5011007;28;20198;-54
2021/06/12 07:31:16;;;;;;;9.70;8.90;;;27.50;50.60;;;;;;5011088;28;20654;-51
2021/06/12 07:33:42;;;;;;;9.00;8.30;;;27.90;50.70;;;;;;5013503;28;20547;-55
2021/06/12 07:36:07;;;;;;;10.30;9.30;;;28.20;50.10;;;;;;5014174;28;20209;-53
2021/06/12 07:38:33;;;;;;;9.20;8.40;;;28.40;49.00;;;;;;5015482;28;20190;-55
2021/06/12 07:40:59;;;;;;;9.43;8.63;;;28.70;48.80;;;;;;5016388;28;20193;-54
2021/06/12 07:43:24;;;;;;;10.27;9.43;;;28.90;47.30;;;;;;5022070;28;20200;-52
2021/06/12 07:45:50;;;;;;;9.57;8.43;;;29.10;46.60;;;;;;5014770;28;20225;-55
2021/06/12 07:48:16;;;;;;;9.83;8.93;;;29.20;47.30;;;;;;5015342;28;20198;-55
2021/06/12 07:50:43;;;;;;;8.83;8.13;;;29.20;46.80;;;;;;5014650;28;20539;-54
2021/06/12 07:53:09;;;;;;;8.67;7.97;;;29.20;47.10;;;;;;5014742;28;20424;-54
2021/06/12 07:55:35;;;;;;;7.97;7.37;;;29.40;47.30;;;;;;5014350;28;20931;-55
2021/06/12 07:58:01;;;;;;;8.33;7.53;;;29.60;47.90;;;;;;5015277;28;20190;-52
2021/06/12 08:00:27;;;;;;;9.00;8.30;;;29.70;47.80;;;;;;5012842;28;20475;-54
2021/06/12 08:02:53;;;;;;;9.73;9.03;;;29.90;47.10;;;;;;5014478;28;20431;-54
2021/06/12 08:05:19;;;;;;;9.23;8.47;;;30.10;46.10;;;;;;5014310;28;20868;-54
2021/06/12 08:07:45;;;;;;;9.47;8.47;;;30.20;46.00;;;;;;5018756;28;20652;-54
2021/06/12 08:10:11;;;;;;;8.90;8.30;;;30.20;45.80;;;;;;5033847;28;20442;-52
2021/06/12 08:12:37;;;;;;;8.60;7.80;;;30.30;45.00;;;;;;5033841;28;20256;-52
2021/06/12 08:15:06;;;;;;;8.80;7.90;;;30.50;45.00;;;;;;5034099;28;20197;-54
2021/06/12 08:17:32;;;;;;;7.50;7.00;;;30.60;44.60;;;;;;5033144;28;20440;-53
2021/06/12 08:19:58;;;;;;;7.33;6.83;;;30.70;45.20;;;;;;5026935;28;20425;-53
2021/06/12 08:22:23;;;;;;;7.37;6.87;;;30.80;44.20;;;;;;5014139;28;20202;-53
2021/06/12 08:24:49;;;;;;;7.90;7.30;;;30.90;44.50;;;;;;5014272;28;20194;-53
2021/06/12 08:27:15;;;;;;;8.60;7.47;;;31.10;44.40;;;;;;5013067;28;20238;-55
2021/06/12 08:29:41;;;;;;;8.40;7.70;;;31.40;44.90;;;;;;5013965;28;20233;-53
2021/06/12 08:32:07;;;;;;;8.20;7.50;;;31.60;44.40;;;;;;5013966;28;20456;-55
2021/06/12 08:34:33;;;;;;;7.73;7.13;;;31.70;43.60;;;;;;5014138;28;20248;-54
2021/06/12 08:36:58;;;;;;;8.03;7.43;;;31.90;42.40;;;;;;5014161;28;20437;-54
2021/06/12 08:39:24;;;;;;;7.80;7.20;;;31.90;42.10;;;;;;5013434;28;20204;-54
2021/06/12 08:41:50;;;;;;;7.63;7.13;;;32.10;42.00;;;;;;5022189;28;20229;-54
2021/06/12 08:44:20;;;;;;;7.17;6.50;;;32.20;41.90;;;;;;5013024;28;20257;-53
2021/06/12 08:46:45;;;;;;;10.40;6.07;;;32.40;40.90;;;;;;5014272;28;20260;-55
2021/06/12 08:49:12;;;;;;;6.00;5.60;;;32.40;40.30;;;;;;5020334;28;20421;-54
2021/06/12 08:51:37;;;;;;;7.17;6.43;;;32.50;40.30;;;;;;5033194;28;20292;-55
2021/06/12 08:54:03;;;;;;;7.93;6.80;;;32.30;40.50;;;;;;5031652;28;20827;-55
2021/06/12 08:56:29;;;;;;;7.43;6.93;;;32.10;41.70;;;;;;5033729;28;20196;-55
2021/06/12 08:58:54;;;;;;;9.07;8.37;;;32.10;43.00;;;;;;5033096;28;20207;-54
2021/06/12 09:01:21;;;;;;;10.07;9.10;;;32.10;43.30;;;;;;5033340;28;20641;-54
2021/06/12 09:03:47;;;;;;;8.90;6.63;;;32.30;43.20;;;;;;5033209;28;20542;-53
2021/06/12 09:06:16;;;;;;;7.77;7.07;;;32.40;42.70;;;;;;5033634;28;20575;-54
2021/06/12 09:08:42;;;;;;;6.20;5.70;;;32.40;41.60;;;;;;5032771;28;20657;-55
2021/06/12 09:11:13;;;;;;;7.03;6.43;;;32.40;42.00;;;;;;5031216;28;20430;-54
2021/06/12 09:13:48;;;;;;;6.50;6.00;;;32.30;42.20;;;;;;5032848;28;20871;-54
2021/06/12 09:16:24;;;;;;;5.50;5.10;;;32.20;42.00;;;;;;5033309;28;20460;-55
2021/06/12 09:18:51;;;;;;;5.30;4.80;;;32.40;43.10;;;;;;5032722;28;20935;-55
2021/06/12 09:21:30;;;;;;;5.20;4.80;;;32.60;42.20;;;;;;5013504;28;20447;-55
2021/06/12 09:23:58;;;;;;;7.57;6.87;;;32.80;42.40;;;;;;5012774;28;20827;-55
2021/06/12 09:26:41;;;;;;;6.43;5.80;;;32.90;42.00;;;;;;5019895;28;20488;-54
2021/06/12 09:29:07;;;;;;;8.80;8.10;;;33.00;41.70;;;;;;5032481;28;20424;-56
2021/06/12 09:31:32;;;;;;;5.83;5.33;;;33.00;41.30;;;;;;5032757;28;20428;-55
2021/06/12 09:34:10;;;;;;;4.17;3.97;;;33.10;41.30;;;;;;5032444;28;20765;-55
2021/06/12 09:36:36;;;;;;;4.60;3.80;;;33.10;40.70;;;;;;5033271;28;20199;-55
2021/06/12 09:39:17;;;;;;;4.00;3.70;;;33.00;40.00;;;;;;5032624;28;20474;-54
2021/06/12 09:41:45;;;;;;;3.90;3.57;;;33.00;40.30;;;;;;5031028;28;20442;-55
2021/06/12 09:44:27;;;;;;;7.33;4.57;;;33.00;41.20;;;;;;5012889;28;20544;-56
2021/06/12 09:46:53;;;;;;;5.30;4.80;;;33.10;41.30;;;;;;5011435;28;20839;-54
2021/06/12 09:49:33;;;;;;;4.40;4.10;;;33.30;41.20;;;;;;5012695;28;20433;-56
2021/06/12 09:52:06;;;;;;;6.77;3.63;;;33.40;40.10;;;;;;5012634;28;20190;-54
2021/06/12 09:54:43;;;;;;;4.43;3.57;;;33.50;40.00;;;;;;5012543;28;20444;-55
2021/06/12 09:57:10;;;;;;;4.10;3.70;;;33.60;39.90;;;;;;5012388;28;20780;-56
2021/06/12 09:59:45;;;;;;;3.57;3.23;;;33.50;39.30;;;;;;5012519;28;20795;-55
2021/06/12 10:02:12;;;;;;;3.13;2.90;;;33.40;39.20;;;;;;5012318;28;20467;-55
2021/06/12 10:04:55;;;;;;;3.43;3.17;;;33.40;39.00;;;;;;5012277;28;20428;-55
2021/06/12 10:07:22;;;;;;;3.70;3.40;;;33.40;39.60;;;;;;5012923;28;20892;-56
2021/06/12 10:09:49;;;;;;;6.60;3.43;;;33.30;39.40;;;;;;5031667;28;20428;-57
2021/06/12 10:12:15;;;;;;;5.23;3.20;;;33.30;39.60;;;;;;5031857;28;20468;-55
2021/06/12 10:14:42;;;;;;;8.70;3.50;;;33.20;40.30;;;;;;5030279;28;20435;-55
2021/06/12 10:17:10;;;;;;;7.83;4.47;;;33.30;40.30;;;;;;5032308;28;20224;-55
2021/06/12 10:19:37;;;;;;;6.10;3.07;;;33.50;39.40;;;;;;5028646;28;20515;-56
2021/06/12 10:22:03;;;;;;;3.67;3.37;;;33.60;39.50;;;;;;5012047;28;20421;-55
2021/06/12 10:24:29;;;;;;;3.83;3.40;;;33.60;38.80;;;;;;5011766;28;20429;-55
2021/06/12 10:26:57;;;;;;;4.90;3.33;;;33.60;39.40;;;;;;5012209;28;20963;-56
2021/06/12 10:29:22;;;;;;;4.10;3.50;;;33.80;38.60;;;;;;5011664;28;20428;-55
2021/06/12 10:31:48;;;;;;;4.00;3.70;;;33.80;38.40;;;;;;5012141;28;20437;-55
2021/06/12 10:34:14;;;;;;;3.70;3.40;;;33.80;38.70;;;;;;5011843;28;20321;-55
2021/06/12 10:36:56;;;;;;;4.23;3.70;;;33.90;38.50;;;;;;5012071;28;20657;-55
2021/06/12 10:39:25;;;;;;;3.63;3.33;;;34.10;38.20;;;;;;5010129;28;20962;-55
2021/06/12 10:42:11;;;;;;;4.00;3.70;;;34.20;38.30;;;;;;5018592;28;20442;-55
2021/06/12 10:44:36;;;;;;;4.40;4.10;;;34.40;38.50;;;;;;5011580;28;20447;-56
2021/06/12 10:47:02;;;;;;;4.83;4.37;;;34.50;38.00;;;;;;5011975;28;20492;-55
2021/06/12 10:49:30;;;;;;;4.30;3.90;;;34.80;38.20;;;;;;5011527;28;20225;-55
2021/06/12 10:51:56;;;;;;;3.77;3.50;;;34.90;37.30;;;;;;5011395;28;20717;-54
2021/06/12 10:54:24;;;;;;;3.50;3.30;;;35.00;37.20;;;;;;5011460;28;20543;-55
2021/06/12 10:56:57;;;;;;;3.40;3.20;;;35.20;36.60;;;;;;5011744;28;20209;-56
2021/06/12 10:59:46;;;;;;;3.30;3.10;;;35.30;36.10;;;;;;5011478;28;20432;-56
2021/06/12 11:02:41;;;;;;;7.10;4.00;;;35.30;36.10;;;;;;5011436;28;20440;-55
2021/06/12 11:05:10;;;;;;;4.13;3.80;;;35.40;36.20;;;;;;5011158;28;20475;-56
2021/06/12 11:07:43;;;;;;;4.53;3.90;;;35.30;35.60;;;;;;5013708;28;20493;-56
2021/06/12 11:10:12;;;;;;;3.70;3.50;;;35.10;34.70;;;;;;5035054;28;20481;-56
2021/06/12 11:12:41;;;;;;;4.70;4.40;;;34.90;36.10;;;;;;5033735;28;20476;-56
2021/06/12 11:15:24;;;;;;;5.90;3.40;;;35.00;36.70;;;;;;5033676;28;20538;-56
2021/06/12 11:18:11;;;;;;;3.93;3.53;;;35.00;35.30;;;;;;5035189;28;20489;-56
2021/06/12 11:20:41;;;;;;;3.77;3.57;;;34.80;36.30;;;;;;5015106;28;20425;-56
2021/06/12 11:23:07;;;;;;;3.87;3.53;;;35.00;36.30;;;;;;5015161;28;20499;-55
2021/06/12 11:25:33;;;;;;;5.50;3.83;;;35.10;35.70;;;;;;5014956;28;20429;-56
2021/06/12 11:28:17;;;;;;;3.37;3.07;;;35.20;35.80;;;;;;5015657;28;20205;-56
2021/06/12 11:30:43;;;;;;;3.43;3.23;;;35.30;35.90;;;;;;5014973;28;20190;-56
2021/06/12 11:33:12;;;;;;;3.80;3.60;;;35.30;35.10;;;;;;5013720;28;20483;-57
2021/06/12 11:35:53;;;;;;;3.93;3.73;;;35.30;35.50;;;;;;5014899;28;20252;-56
2021/06/12 11:38:27;;;;;;;6.10;3.53;;;34.90;35.00;;;;;;5015693;28;20440;-56
2021/06/12 11:41:04;;;;;;;5.80;4.23;;;34.90;35.50;;;;;;5014625;28;20436;-55
2021/06/12 11:43:39;;;;;;;3.50;3.23;;;34.90;33.70;;;;;;5022086;28;20425;-55
2021/06/12 11:46:16;;;;;;;4.03;3.40;;;35.00;34.70;;;;;;5015489;28;20998;-55
2021/06/12 11:48:44;;;;;;;3.20;2.90;;;35.10;34.50;;;;;;5014761;28;20476;-55
2021/06/12 11:51:25;;;;;;;3.67;3.40;;;34.60;33.10;;;;;;5014695;28;20787;-56
2021/06/12 11:54:09;;;;;;;3.33;3.13;;;34.70;33.00;;;;;;5019223;28;20526;-55
2021/06/12 11:56:45;;;;;;;3.33;3.13;;;34.20;33.30;;;;;;5021546;28;20539;-55
2021/06/12 11:59:16;;;;;;;3.60;3.30;;;34.20;34.40;;;;;;5013270;28;20447;-55
2021/06/12 12:01:46;;;;;;;5.37;4.97;;;34.30;34.70;;;;;;5014385;28;20497;-55
2021/06/12 12:04:14;;;;;;;5.33;4.17;;;34.50;36.00;;;;;;5014435;28;20433;-55
2021/06/12 12:06:51;;;;;;;4.37;3.57;;;34.50;37.30;;;;;;5014882;28;20960;-56
2021/06/12 12:09:28;;;;;;;3.50;3.27;;;34.60;35.90;;;;;;5030552;28;20778;-56
2021/06/12 12:11:56;;;;;;;3.40;3.10;;;34.70;34.70;;;;;;5034014;28;20463;-54
2021/06/12 12:14:30;;;;;;;5.40;3.10;;;34.60;35.30;;;;;;5034005;28;20782;-56
2021/06/12 12:16:56;;;;;;;5.93;3.40;;;34.70;35.20;;;;;;5034466;28;20530;-56
2021/06/12 12:19:23;;;;;;;6.70;3.50;;;34.30;34.60;;;;;;5032106;28;20443;-55
2021/06/12 12:21:54;;;;;;;4.30;2.80;;;33.90;36.10;;;;;;5014062;28;20467;-55
2021/06/12 12:24:21;;;;;;;3.97;2.87;;;33.70;35.90;;;;;;5014035;28;20437;-55
2021/06/12 12:26:58;;;;;;;2.60;2.40;;;33.50;34.40;;;;;;5012839;28;20491;-57
2021/06/12 12:29:25;;;;;;;3.50;2.87;;;33.80;35.20;;;;;;5014009;28;20839;-56
2021/06/12 12:31:51;;;;;;;3.37;3.07;;;33.80;35.70;;;;;;5014104;28;20425;-55
2021/06/12 12:34:32;;;;;;;2.83;2.60;;;33.90;35.40;;;;;;5013845;28;20433;-55
2021/06/12 12:36:58;;;;;;;3.03;2.57;;;34.10;35.40;;;;;;5014597;28;20934;-56
2021/06/12 12:39:34;;;;;;;3.83;2.57;;;34.10;34.80;;;;;;5013441;28;20643;-55
2021/06/12 12:42:00;;;;;;;2.83;2.53;;;34.30;34.90;;;;;;5022706;28;20435;-55